Observations for AMSTERDAM SCHIPHOL, Netherlands (EHAM)

EHAM 112325Z VRB01KT 9999 SCT045 02/01 Q1025 NOSIG  
EHAM 112255Z 32002KT 9999 BKN046 01/01 Q1025 NOSIG  
EHAM 112225Z 30001KT 9999 BKN046 01/01 Q1025 NOSIG  
EHAM 112155Z 26001KT 9999 BKN047 01/01 Q1025 NOSIG  
EHAM 112125Z 33001KT CAVOK 02/01 Q1025 NOSIG
EHAM 112055Z 05001KT CAVOK 02/01 Q1025 NOSIG
EHAM 112025Z 02001KT CAVOK 02/02 Q1025 NOSIG
EHAM 111955Z 27002KT 9999 FEW048 04/03 Q1024 NOSIG  
EHAM 111925Z 31002KT 9999 SCT048 03/03 Q1024 NOSIG  
EHAM 111855Z 32002KT 9999 BKN048 04/03 Q1024 NOSIG  
EHAM 111825Z 27005KT 9999 FEW035 BKN048 04/03 Q1024 NOSIG   
EHAM 111755Z 28004KT 9999 FEW035 BKN045 05/04 Q1024 NOSIG   
EHAM 111725Z 30004KT 9999 FEW035 BKN045 04/03 Q1024 NOSIG   
EHAM 111655Z VRB02KT 9999 FEW025 BKN045 05/03 Q1024 NOSIG   
EHAM 111625Z 31004KT 9999 FEW025TCU BKN037 05/04 Q1024 TEMPO -SHRA  
EHAM 111555Z 31005KT 9999 FEW025TCU BKN037 05/03 Q1024 TEMPO -SHRA  
EHAM 111525Z 27005KT 9999 FEW025TCU SCT045 05/03 Q1024 TEMPO -SHRA  
EHAM 111455Z 28005KT 260V340 9999 FEW025TCU SCT045 06/04 Q1024 TEMPO -SHRA  
EHAM 111425Z 34004KT 310V010 9999 FEW020 FEW025TCU SCT030 06/04 Q1024 TEMPO -SHRA   
EHAM 111355Z 36008KT 300V040 9999 -SHRA FEW020 FEW025CB SCT029 07/04 Q1024 NOSIG
EHAM 111325Z 35002KT 9999 VCSH FEW020 FEW023TCU FEW025CB SCT030 07/04 Q1024 NOSIG   
EHAM 111255Z 36006KT 330V050 9999 VCSH FEW023TCU FEW025CB SCT032 07/04 Q1024 NOSIG  
EHAM 111225Z 27005KT 9999 VCSH FEW020 FEW023CB SCT030 07/04 Q1024 NOSIG 
EHAM 111155Z 35010KT 310V040 9999 -SHRA FEW020 FEW021TCU FEW023CB SCT035 06/04 Q1024 NOSIG  
EHAM 111125Z 29004KT 250V010 9999 VCSH FEW020 FEW023CB SCT035 08/04 Q1024 NOSIG 
EHAM 111055Z VRB01KT 9999 VCSH FEW020 FEW023CB SCT035 08/05 Q1024 NOSIG 
EHAM 111025Z 31003KT 9999 VCSH FEW020 FEW023CB 06/04 Q1024 NOSIG
EHAM 110955Z 27003KT 9999 FEW019 FEW022CB 07/04 Q1024 NOSIG 
EHAM 110925Z VRB02KT 9999 -SHRA FEW019 FEW022CB 06/04 Q1024 NOSIG   
EHAM 110855Z VRB02KT 9999 VCSH FEW019 FEW022TCU SCT029 05/04 Q1024 NOSIG
EHAM 110825Z 32003KT 300V010 9999 VCSH FEW019 FEW022TCU SCT035 05/03 Q1024 NOSIG
EHAM 110755Z 28003KT 9999 -SHRA FEW022TCU SCT026 04/02 Q1024 NOSIG  
EHAM 110725Z 30003KT 260V340 9999 VCSH FEW022TCU SCT026 04/02 Q1024 NOSIG   
EHAM 110655Z 28006KT 9999 VCSH FEW022TCU SCT026 04/02 Q1024 NOSIG   
EHAM 110625Z 29007KT 9999 -SHRA SCT022TCU BKN028 05/03 Q1024 NOSIG  
EHAM 110555Z 36008KT 320V040 9999 -SHRA FEW022TCU BKN028 05/03 Q1024 NOSIG  
EHAM 110525Z 34009KT 310V020 9999 -SHRA SCT022TCU BKN037 06/03 Q1024 NOSIG  
EHAM 110455Z 33009KT 290V010 9999 -SHRA FEW025TCU BKN033 06/03 Q1024 NOSIG  
EHAM 110425Z 32011KT 9999 VCSH FEW025TCU BKN033 06/02 Q1023 NOSIG   
EHAM 110355Z 32007KT 9999 VCSH FEW025TCU BKN035 04/02 Q1023 NOSIG   
EHAM 110325Z 30007KT 9999 FEW023TCU BKN040 04/02 Q1023 NOSIG
EHAM 110255Z 31007KT 9999 VCSH FEW023TCU SCT035 05/02 Q1024 NOSIG   
EHAM 110225Z 32008KT 280V350 9999 -SHRA SCT023TCU 05/03 Q1024 NOSIG 
EHAM 110155Z 29009KT 9999 VCSH FEW025TCU 05/02 Q1023 NOSIG  
EHAM 110125Z 31009KT 9999 FEW028 SCT045 05/02 Q1023 NOSIG   
EHAM 110055Z 32008KT 9999 FEW028 05/02 Q1023 NOSIG  
EHAM 110025Z 33009KT 300V010 9999 VCSH SCT026TCU 06/03 Q1024 NOSIG  
EHAM 102355Z 30010KT 9999 FEW026TCU 05/02 Q1024 NOSIG   
EHAM 102325Z 30012KT 9999 FEW024TCU 05/02 Q1024 NOSIG   
EHAM 102255Z 31010KT 9999 FEW024TCU 05/02 Q1023 NOSIG   
EHAM 102225Z 32009KT 9999 FEW024TCU 05/02 Q1023 NOSIG